Time;durP1;ratioP1;P1;durP2;ratioP2;P2;SDS_P1;SDS_P2;PMS_P1;PMS_P2;Temp;Humidity;BMP_temperature;BMP_pressure;BME280_temperature;BME280_humidity;BME280_pressure;Samples;Min_cycle;Max_cycle;Signal;HPM_P1;HPM_P2
2023/11/27 00:01:08;;;;;;;4.13;3.10;;;;;;;;;;4924588;29;20220;-85
2023/11/27 00:04:12;;;;;;;5.73;2.90;;;;;;;;;;4924745;29;20189;-84
2023/11/27 00:07:16;;;;;;;4.23;2.93;;;;;;;;;;4935360;29;20216;-83
2023/11/27 00:10:20;;;;;;;6.27;3.43;;;;;;;;;;4923800;29;20220;-84
2023/11/27 00:13:24;;;;;;;5.33;2.97;;;;;;;;;;4924964;29;20185;-84
2023/11/27 00:16:29;;;;;;;4.73;2.70;;;;;;;;;;4924099;29;20189;-84
2023/11/27 00:19:33;;;;;;;3.60;2.90;;;;;;;;;;4923819;29;20177;-85
2023/11/27 00:22:37;;;;;;;6.03;3.40;;;;;;;;;;4912649;29;20189;-83
2023/11/27 00:25:41;;;;;;;5.13;2.87;;;;;;;;;;4924492;29;20557;-84
2023/11/27 00:28:45;;;;;;;4.37;2.80;;;;;;;;;;4913619;29;20216;-84
2023/11/27 00:31:50;;;;;;;4.30;2.80;;;;;;;;;;4923708;29;20617;-85
2023/11/27 00:34:54;;;;;;;4.97;3.00;;;;;;;;;;4924160;29;20185;-84
2023/11/27 00:37:58;;;;;;;3.73;2.90;;;;;;;;;;4913298;29;20626;-84
2023/11/27 00:41:02;;;;;;;4.27;3.00;;;;;;;;;;4912284;29;20625;-86
2023/11/27 00:44:06;;;;;;;3.93;2.60;;;;;;;;;;4923213;29;20189;-86
2023/11/27 00:47:10;;;;;;;4.80;2.80;;;;;;;;;;4924077;29;20558;-84
2023/11/27 00:50:14;;;;;;;5.70;2.87;;;;;;;;;;4923869;29;20220;-85
2023/11/27 00:53:19;;;;;;;3.13;2.60;;;;;;;;;;4922900;29;20581;-85
2023/11/27 00:56:24;;;;;;;3.20;2.60;;;;;;;;;;4923628;29;20545;-86
2023/11/27 00:59:28;;;;;;;4.17;2.50;;;;;;;;;;4923498;29;20177;-84
2023/11/27 01:02:33;;;;;;;3.47;2.73;;;;;;;;;;4922515;29;20192;-86
2023/11/27 01:05:38;;;;;;;3.37;2.87;;;;;;;;;;4911765;29;20185;-85
2023/11/27 01:08:41;;;;;;;4.50;2.90;;;;;;;;;;4922492;29;20213;-86
2023/11/27 01:11:46;;;;;;;4.73;2.57;;;;;;;;;;4922922;29;20628;-85
2023/11/27 01:14:51;;;;;;;2.77;2.40;;;;;;;;;;4911732;29;20185;-86
2023/11/27 01:17:55;;;;;;;4.80;3.10;;;;;;;;;;4923256;29;20527;-84
2023/11/27 01:20:59;;;;;;;3.63;3.13;;;;;;;;;;4922485;29;20559;-84
2023/11/27 01:24:05;;;;;;;4.70;2.90;;;;;;;;;;4922880;29;20189;-85
2023/11/27 01:27:09;;;;;;;4.43;3.10;;;;;;;;;;4922705;29;20630;-85
2023/11/27 01:30:15;;;;;;;5.53;2.90;;;;;;;;;;4922535;29;20234;-85
2023/11/27 01:33:19;;;;;;;3.40;2.90;;;;;;;;;;4923237;29;20189;-85
2023/11/27 01:36:23;;;;;;;5.90;3.00;;;;;;;;;;4911939;29;20545;-83
2023/11/27 01:39:27;;;;;;;4.20;2.90;;;;;;;;;;4922163;29;20181;-85
2023/11/27 01:42:31;;;;;;;3.33;2.87;;;;;;;;;;4933396;29;20628;-84
2023/11/27 01:45:36;;;;;;;4.27;3.17;;;;;;;;;;4911994;29;20184;-85
2023/11/27 01:48:40;;;;;;;5.67;3.03;;;;;;;;;;4911561;29;20596;-87
2023/11/27 01:51:45;;;;;;;4.90;2.97;;;;;;;;;;4911118;29;20224;-87
2023/11/27 01:54:49;;;;;;;4.00;3.23;;;;;;;;;;4910684;29;20189;-88
2023/11/27 01:57:52;;;;;;;4.70;2.87;;;;;;;;;;4921686;29;20176;-88
2023/11/27 02:00:57;;;;;;;3.63;2.60;;;;;;;;;;4910363;29;20220;-87
2023/11/27 02:04:02;;;;;;;3.97;3.17;;;;;;;;;;4899900;29;20627;-87
2023/11/27 02:07:07;;;;;;;5.80;3.03;;;;;;;;;;4910946;29;20181;-87
2023/11/27 02:10:11;;;;;;;5.03;3.00;;;;;;;;;;4910065;29;20217;-87
2023/11/27 02:13:15;;;;;;;3.90;3.10;;;;;;;;;;4920339;29;20188;-85
2023/11/27 02:16:21;;;;;;;4.60;3.20;;;;;;;;;;4919200;29;20188;-86
2023/11/27 02:19:25;;;;;;;5.70;3.20;;;;;;;;;;4908357;29;20185;-85
2023/11/27 02:22:29;;;;;;;5.27;3.43;;;;;;;;;;4907944;29;20180;-85
2023/11/27 02:25:33;;;;;;;5.53;3.17;;;;;;;;;;4908560;29;20189;-85
2023/11/27 02:28:38;;;;;;;6.43;3.27;;;;;;;;;;4919039;29;20596;-85
2023/11/27 02:31:42;;;;;;;5.43;3.50;;;;;;;;;;4919167;29;20232;-84
2023/11/27 02:34:47;;;;;;;5.63;3.57;;;;;;;;;;4919464;29;20184;-84
2023/11/27 02:37:51;;;;;;;4.47;3.13;;;;;;;;;;4919419;29;20185;-84
2023/11/27 02:40:56;;;;;;;4.67;3.40;;;;;;;;;;4919534;29;20974;-85
2023/11/27 02:44:00;;;;;;;5.57;3.77;;;;;;;;;;4919001;29;20189;-85
2023/11/27 02:47:05;;;;;;;4.90;2.90;;;;;;;;;;4919513;29;20185;-85
2023/11/27 02:50:09;;;;;;;5.73;3.37;;;;;;;;;;4930340;29;20236;-84
2023/11/27 02:53:14;;;;;;;6.10;3.57;;;;;;;;;;4908416;29;20184;-84
2023/11/27 02:56:18;;;;;;;5.50;3.30;;;;;;;;;;4920255;29;20181;-84
2023/11/27 02:59:22;;;;;;;7.17;3.50;;;;;;;;;;4919892;29;20184;-84
2023/11/27 03:02:27;;;;;;;4.07;3.17;;;;;;;;;;4919256;29;20184;-85
2023/11/27 03:05:31;;;;;;;4.37;3.60;;;;;;;;;;4920580;29;20189;-85
2023/11/27 03:08:35;;;;;;;5.80;4.00;;;;;;;;;;4921272;29;20208;-85
2023/11/27 03:11:39;;;;;;;5.37;3.60;;;;;;;;;;4912466;29;20220;-83
2023/11/27 03:14:44;;;;;;;7.67;3.53;;;;;;;;;;4933773;29;20557;-84
2023/11/27 03:17:48;;;;;;;4.53;3.30;;;;;;;;;;4923356;29;20189;-84
2023/11/27 03:20:53;;;;;;;5.70;3.80;;;;;;;;;;4933807;29;20582;-84
2023/11/27 03:23:57;;;;;;;6.63;3.90;;;;;;;;;;4934384;29;20930;-84
2023/11/27 03:27:01;;;;;;;4.60;3.30;;;;;;;;;;4922266;29;20193;-84
2023/11/27 03:30:06;;;;;;;4.97;3.07;;;;;;;;;;4922777;29;20234;-84
2023/11/27 03:33:10;;;;;;;4.63;3.63;;;;;;;;;;4922570;29;20185;-84
2023/11/27 03:36:15;;;;;;;6.87;3.70;;;;;;;;;;4932881;29;20189;-84
2023/11/27 03:39:20;;;;;;;5.43;3.50;;;;;;;;;;4911325;29;20536;-83
2023/11/27 03:42:25;;;;;;;5.87;3.60;;;;;;;;;;4923355;29;20693;-84
2023/11/27 03:45:29;;;;;;;5.47;3.67;;;;;;;;;;4933386;29;20193;-84
2023/11/27 03:48:33;;;;;;;5.10;3.47;;;;;;;;;;4921970;29;20217;-84
2023/11/27 03:51:38;;;;;;;4.57;3.73;;;;;;;;;;4901152;29;20702;-84
2023/11/27 03:54:42;;;;;;;5.97;3.57;;;;;;;;;;4922169;29;20564;-84
2023/11/27 03:57:46;;;;;;;4.87;3.77;;;;;;;;;;4900603;29;20193;-84
2023/11/27 04:00:50;;;;;;;5.87;3.77;;;;;;;;;;4900422;29;21172;-85
2023/11/27 04:03:54;;;;;;;5.13;3.90;;;;;;;;;;4933519;29;20189;-84
2023/11/27 04:07:00;;;;;;;4.23;3.77;;;;;;;;;;4921414;29;20189;-84
2023/11/27 04:10:04;;;;;;;6.20;4.00;;;;;;;;;;4910529;29;20232;-84
2023/11/27 04:13:08;;;;;;;4.10;3.23;;;;;;;;;;4923142;29;20185;-85
2023/11/27 04:16:13;;;;;;;8.03;4.00;;;;;;;;;;4900620;29;20184;-84
2023/11/27 04:19:17;;;;;;;4.90;3.97;;;;;;;;;;4932811;29;20181;-84
2023/11/27 04:22:21;;;;;;;5.60;3.67;;;;;;;;;;4932946;29;20578;-83
2023/11/27 04:25:25;;;;;;;6.43;3.70;;;;;;;;;;4921523;29;20181;-85
2023/11/27 04:28:29;;;;;;;7.90;3.83;;;;;;;;;;4921982;29;20181;-84
2023/11/27 04:31:34;;;;;;;5.47;4.20;;;;;;;;;;4910816;29;20571;-84
2023/11/27 04:34:38;;;;;;;5.70;3.60;;;;;;;;;;4922428;29;20188;-84
2023/11/27 04:37:42;;;;;;;7.40;3.90;;;;;;;;;;4932815;29;20189;-85
2023/11/27 04:40:46;;;;;;;4.60;3.67;;;;;;;;;;4921169;29;20212;-84
2023/11/27 04:43:51;;;;;;;7.23;4.47;;;;;;;;;;4922489;29;20177;-85
2023/11/27 04:46:55;;;;;;;4.10;3.47;;;;;;;;;;4910823;29;20189;-84
2023/11/27 04:50:00;;;;;;;5.30;4.10;;;;;;;;;;4921921;29;20237;-85
2023/11/27 04:53:04;;;;;;;4.80;3.97;;;;;;;;;;4932914;29;20185;-86
2023/11/27 04:56:08;;;;;;;8.10;4.77;;;;;;;;;;4921108;29;20193;-84
2023/11/27 04:59:13;;;;;;;5.97;4.10;;;;;;;;;;4922324;29;20184;-84
2023/11/27 05:02:17;;;;;;;6.87;4.70;;;;;;;;;;4921609;29;20185;-85
2023/11/27 05:05:21;;;;;;;7.63;4.87;;;;;;;;;;4911365;29;20184;-84
2023/11/27 05:08:26;;;;;;;4.93;4.30;;;;;;;;;;4932222;29;20189;-85
2023/11/27 05:11:30;;;;;;;5.97;4.63;;;;;;;;;;4921634;29;20233;-85
2023/11/27 05:14:35;;;;;;;6.40;4.17;;;;;;;;;;4932046;29;20180;-85
2023/11/27 05:17:39;;;;;;;6.67;4.47;;;;;;;;;;4910333;29;20190;-84
2023/11/27 05:20:43;;;;;;;11.70;4.80;;;;;;;;;;4932989;29;20224;-85
2023/11/27 05:23:47;;;;;;;5.83;4.20;;;;;;;;;;4932547;29;20193;-85
2023/11/27 05:26:51;;;;;;;6.17;4.60;;;;;;;;;;4921584;29;20519;-83
2023/11/27 05:29:56;;;;;;;6.27;4.40;;;;;;;;;;4920857;29;20233;-85
2023/11/27 05:33:00;;;;;;;5.30;3.93;;;;;;;;;;4920915;29;20559;-83
2023/11/27 05:36:05;;;;;;;5.70;4.33;;;;;;;;;;4920510;29;20189;-84
2023/11/27 05:39:13;;;;;;;5.00;3.97;;;;;;;;;;4899843;29;20554;-84
2023/11/27 05:42:20;;;;;;;4.70;3.40;;;;;;;;;;4931512;29;20616;-85
2023/11/27 05:45:24;;;;;;;4.67;3.80;;;;;;;;;;4920845;29;20185;-85
2023/11/27 05:48:29;;;;;;;5.67;3.80;;;;;;;;;;4919364;29;20561;-83
2023/11/27 05:51:33;;;;;;;5.97;3.63;;;;;;;;;;4909425;29;20609;-83
2023/11/27 05:54:37;;;;;;;5.00;3.40;;;;;;;;;;4920045;29;20569;-85
2023/11/27 05:57:41;;;;;;;5.40;3.27;;;;;;;;;;4908746;29;20545;-83
2023/11/27 06:00:45;;;;;;;4.43;3.47;;;;;;;;;;4919697;29;20217;-83
2023/11/27 06:03:50;;;;;;;3.93;3.43;;;;;;;;;;4920272;29;20550;-83
2023/11/27 06:06:54;;;;;;;4.20;3.30;;;;;;;;;;4920549;29;20546;-84
2023/11/27 06:09:58;;;;;;;5.40;3.27;;;;;;;;;;4931662;29;20664;-83
2023/11/27 06:13:02;;;;;;;5.17;3.20;;;;;;;;;;4921726;29;20189;-84
2023/11/27 06:16:10;;;;;;;4.67;3.60;;;;;;;;;;4922377;29;20542;-84
2023/11/27 06:19:14;;;;;;;5.13;2.80;;;;;;;;;;4921845;29;20579;-84
2023/11/27 06:22:19;;;;;;;5.70;2.53;;;;;;;;;;4922355;29;20188;-84
2023/11/27 06:25:23;;;;;;;4.87;2.50;;;;;;;;;;4922323;29;20519;-83
2023/11/27 06:28:27;;;;;;;3.43;2.23;;;;;;;;;;4910620;29;20549;-84
2023/11/27 06:31:31;;;;;;;3.47;2.03;;;;;;;;;;4920789;29;20216;-84
2023/11/27 06:34:36;;;;;;;2.43;2.03;;;;;;;;;;4931558;29;20573;-83
2023/11/27 06:37:40;;;;;;;2.90;2.20;;;;;;;;;;4920715;29;20189;-83
2023/11/27 06:40:46;;;;;;;2.90;2.23;;;;;;;;;;4909440;29;20621;-85
2023/11/27 06:43:50;;;;;;;2.93;2.17;;;;;;;;;;4921117;29;20192;-84
2023/11/27 06:46:54;;;;;;;2.30;2.10;;;;;;;;;;4932175;29;21101;-82
2023/11/27 06:49:59;;;;;;;3.17;2.20;;;;;;;;;;4921320;29;20232;-85
2023/11/27 06:53:03;;;;;;;2.37;1.97;;;;;;;;;;4921606;29;21090;-84
2023/11/27 06:56:08;;;;;;;2.20;2.00;;;;;;;;;;4932142;29;20549;-84
2023/11/27 06:59:12;;;;;;;5.23;2.27;;;;;;;;;;4922131;29;20546;-84
2023/11/27 07:02:16;;;;;;;3.27;2.10;;;;;;;;;;4921967;29;20545;-84
2023/11/27 07:05:25;;;;;;;2.40;1.87;;;;;;;;;;4931303;29;20194;-84
2023/11/27 07:08:31;;;;;;;3.70;2.10;;;;;;;;;;4932607;29;20566;-85
2023/11/27 07:11:35;;;;;;;4.77;3.07;;;;;;;;;;4922001;29;20613;-83
2023/11/27 07:14:39;;;;;;;4.90;2.80;;;;;;;;;;4932033;29;20554;-83
2023/11/27 07:17:44;;;;;;;3.57;3.23;;;;;;;;;;4920791;29;20192;-83
2023/11/27 07:20:48;;;;;;;5.17;3.40;;;;;;;;;;4921062;29;20609;-84
2023/11/27 07:23:53;;;;;;;32.00;16.30;;;;;;;;;;4921167;29;20181;-83
2023/11/27 07:26:58;;;;;;;48.70;26.73;;;;;;;;;;4920167;29;20185;-84
2023/11/27 07:30:04;;;;;;;11.53;5.73;;;;;;;;;;4918382;29;20578;-84
2023/11/27 07:33:08;;;;;;;2.83;2.00;;;;;;;;;;4909051;29;20537;-83
2023/11/27 07:36:12;;;;;;;3.03;1.87;;;;;;;;;;4920738;29;20541;-84
2023/11/27 07:39:16;;;;;;;3.53;2.30;;;;;;;;;;4909067;29;20181;-83
2023/11/27 07:42:20;;;;;;;8.27;2.10;;;;;;;;;;4919655;29;20216;-84
2023/11/27 07:45:24;;;;;;;2.57;1.63;;;;;;;;;;4930555;29;20200;-85
2023/11/27 07:48:29;;;;;;;2.73;1.40;;;;;;;;;;4919665;29;20185;-84
2023/11/27 07:51:33;;;;;;;2.00;1.47;;;;;;;;;;4918734;29;20233;-85
2023/11/27 07:54:37;;;;;;;2.47;1.60;;;;;;;;;;4921846;29;20181;-83
2023/11/27 07:57:43;;;;;;;1.93;1.60;;;;;;;;;;4911998;29;20193;-84
2023/11/27 08:00:47;;;;;;;3.63;1.80;;;;;;;;;;4933888;29;20217;-84
2023/11/27 08:03:51;;;;;;;2.23;1.70;;;;;;;;;;4922481;29;20184;-84
2023/11/27 08:06:55;;;;;;;3.60;1.80;;;;;;;;;;4923659;29;20635;-84
2023/11/27 08:10:01;;;;;;;1.47;1.23;;;;;;;;;;4934491;29;20240;-83
2023/11/27 08:13:05;;;;;;;1.53;1.27;;;;;;;;;;4924710;29;20555;-83
2023/11/27 08:16:09;;;;;;;1.70;1.20;;;;;;;;;;4924446;29;20189;-83
2023/11/27 08:19:16;;;;;;;1.93;1.50;;;;;;;;;;4923703;29;20189;-85
2023/11/27 08:22:21;;;;;;;1.50;1.20;;;;;;;;;;4912816;29;20185;-84
2023/11/27 08:25:26;;;;;;;19.23;2.83;;;;;;;;;;4922708;29;20185;-84
2023/11/27 08:28:32;;;;;;;2.87;1.37;;;;;;;;;;4922697;29;20185;-85
2023/11/27 08:31:36;;;;;;;1.63;1.27;;;;;;;;;;4923546;29;20702;-83
2023/11/27 08:34:40;;;;;;;1.40;1.30;;;;;;;;;;4922483;29;20185;-85
2023/11/27 08:37:45;;;;;;;1.60;1.40;;;;;;;;;;4922218;29;20188;-83
2023/11/27 08:40:49;;;;;;;3.33;2.00;;;;;;;;;;4921587;29;20221;-85
2023/11/27 08:43:53;;;;;;;1.40;1.27;;;;;;;;;;4931216;29;20190;-84
2023/11/27 08:46:57;;;;;;;2.50;1.30;;;;;;;;;;4923604;29;20193;-85
2023/11/27 08:50:04;;;;;;;2.77;1.50;;;;;;;;;;4920192;29;20228;-86
2023/11/27 08:53:09;;;;;;;1.47;1.30;;;;;;;;;;4921072;29;20185;-86
2023/11/27 08:56:17;;;;;;;1.20;1.10;;;;;;;;;;4920439;29;20185;-84
2023/11/27 08:59:21;;;;;;;1.77;1.33;;;;;;;;;;4920524;29;20535;-83
2023/11/27 09:02:26;;;;;;;2.80;1.27;;;;;;;;;;4920589;29;20176;-85
2023/11/27 09:05:30;;;;;;;3.70;1.10;;;;;;;;;;4920007;29;20634;-83
2023/11/27 09:08:35;;;;;;;1.00;0.90;;;;;;;;;;4921358;29;20189;-83
2023/11/27 09:11:39;;;;;;;3.93;1.40;;;;;;;;;;4921109;29;20586;-83
2023/11/27 09:14:43;;;;;;;2.10;1.17;;;;;;;;;;4921338;29;20192;-85
2023/11/27 09:17:48;;;;;;;1.40;1.07;;;;;;;;;;4920148;29;20189;-84
2023/11/27 09:20:51;;;;;;;2.13;1.23;;;;;;;;;;4920859;29;20217;-85
2023/11/27 09:23:56;;;;;;;3.20;2.43;;;;;;;;;;4921130;29;20180;-85
2023/11/27 09:27:01;;;;;;;2.20;1.40;;;;;;;;;;4920601;29;20181;-86
2023/11/27 09:30:09;;;;;;;3.43;1.53;;;;;;;;;;4910360;29;20220;-86
2023/11/27 09:33:13;;;;;;;2.30;1.20;;;;;;;;;;4899715;29;20188;-86
2023/11/27 09:36:17;;;;;;;2.83;1.20;;;;;;;;;;4922140;29;20184;-86
2023/11/27 09:39:21;;;;;;;1.70;1.40;;;;;;;;;;4921112;29;20226;-86
2023/11/27 09:42:35;;;;;;;1.80;1.47;;;;;;;;;;4921098;29;20205;-86
2023/11/27 09:45:39;;;;;;;2.17;1.97;;;;;;;;;;4910836;29;20181;-86
2023/11/27 09:48:44;;;;;;;1.70;1.60;;;;;;;;;;4932231;29;20186;-86
2023/11/27 09:51:50;;;;;;;2.70;1.70;;;;;;;;;;4921761;29;20228;-87
2023/11/27 09:55:01;;;;;;;1.80;1.37;;;;;;;;;;4910213;29;20189;-86
2023/11/27 09:58:06;;;;;;;2.93;1.90;;;;;;;;;;4899690;29;20182;-86
2023/11/27 10:01:13;;;;;;;3.23;1.50;;;;;;;;;;4932125;29;20613;-86
2023/11/27 10:04:17;;;;;;;2.80;1.60;;;;;;;;;;4922147;29;20185;-86
2023/11/27 10:07:22;;;;;;;17.03;9.70;;;;;;;;;;4921328;29;20185;-86
2023/11/27 10:10:26;;;;;;;3.50;2.13;;;;;;;;;;4931293;29;20229;-86
2023/11/27 10:13:41;;;;;;;2.43;1.70;;;;;;;;;;4931865;29;20627;-86
2023/11/27 10:16:49;;;;;;;2.00;1.43;;;;;;;;;;4909825;29;20543;-86
2023/11/27 10:19:58;;;;;;;2.33;1.60;;;;;;;;;;4899060;29;20217;-86
2023/11/27 10:23:02;;;;;;;1.70;1.50;;;;;;;;;;4920604;29;20181;-86
2023/11/27 10:26:06;;;;;;;1.63;1.30;;;;;;;;;;4920036;29;20634;-89
2023/11/27 10:29:11;;;;;;;1.80;1.30;;;;;;;;;;4909997;29;20189;-86
2023/11/27 10:32:14;;;;;;;2.13;1.23;;;;;;;;;;4911786;29;20209;-86
2023/11/27 10:35:26;;;;;;;1.10;1.00;;;;;;;;;;4921057;29;20188;-86
2023/11/27 10:38:30;;;;;;;3.10;2.27;;;;;;;;;;4921319;29;20177;-87
2023/11/27 10:41:35;;;;;;;2.87;1.40;;;;;;;;;;4920777;29;20594;-86
2023/11/27 10:45:08;;;;;;;2.20;1.57;;;;;;;;;;4910880;29;20566;-83
2023/11/27 11:25:03;;;;;;;1.77;1.20;;;;;;;;;;4880501;29;20187;-84
2023/11/27 11:44:54;;;;;;;18.83;10.77;;;;;;;;;;4936915;29;20213;-83
2023/11/27 11:49:24;;;;;;;4.07;3.47;;;;;;;;;;4984537;23;20239;-83
2023/11/27 11:52:31;;;;;;;3.40;1.90;;;;;;;;;;4960745;29;20684;-82
2023/11/27 11:55:39;;;;;;;2.67;1.47;;;;;;;;;;4961697;29;20183;-83
2023/11/27 11:58:43;;;;;;;3.10;1.30;;;;;;;;;;4960860;29;20215;-83
2023/11/27 12:01:48;;;;;;;1.90;1.70;;;;;;;;;;4962571;29;20179;-83
2023/11/27 12:04:53;;;;;;;2.60;1.40;;;;;;;;;;4949378;29;20581;-82
2023/11/27 12:07:57;;;;;;;2.80;1.43;;;;;;;;;;4959624;29;20227;-83
2023/11/27 12:11:03;;;;;;;1.63;1.47;;;;;;;;;;4948615;29;20211;-83
2023/11/27 12:14:14;;;;;;;2.90;1.37;;;;;;;;;;4960964;29;20541;-83
2023/11/27 12:17:20;;;;;;;2.30;1.47;;;;;;;;;;4961627;29;20180;-83
2023/11/27 12:20:25;;;;;;;1.80;1.47;;;;;;;;;;4959528;29;20180;-83
2023/11/27 12:23:35;;;;;;;2.57;1.43;;;;;;;;;;4960793;29;20180;-83
2023/11/27 12:26:40;;;;;;;2.63;1.60;;;;;;;;;;4960223;29;20184;-82
2023/11/27 12:29:45;;;;;;;4.07;1.80;;;;;;;;;;4959941;29;20227;-82
2023/11/27 12:32:50;;;;;;;1.83;1.63;;;;;;;;;;4960399;29;20211;-82
2023/11/27 12:35:55;;;;;;;3.47;1.60;;;;;;;;;;4959448;29;20187;-82
2023/11/27 12:38:59;;;;;;;4.10;1.40;;;;;;;;;;4959482;29;20215;-83
2023/11/27 12:42:12;;;;;;;2.00;1.57;;;;;;;;;;4960700;29;20180;-82
2023/11/27 12:45:20;;;;;;;2.63;1.50;;;;;;;;;;4960071;29;20175;-83
2023/11/27 12:48:24;;;;;;;3.33;1.60;;;;;;;;;;4959116;28;20235;-82
2023/11/27 12:51:29;;;;;;;1.50;1.23;;;;;;;;;;4960763;29;20215;-83
2023/11/27 12:54:36;;;;;;;2.37;1.10;;;;;;;;;;4937798;29;20582;-83
2023/11/27 12:57:41;;;;;;;1.90;1.37;;;;;;;;;;4960903;29;20187;-83
2023/11/27 13:00:45;;;;;;;1.23;1.07;;;;;;;;;;4959589;29;20192;-82
2023/11/27 13:03:49;;;;;;;2.67;1.30;;;;;;;;;;4959605;29;20641;-82
2023/11/27 13:06:57;;;;;;;2.17;1.30;;;;;;;;;;4960607;29;20617;-83
2023/11/27 13:10:09;;;;;;;2.30;1.40;;;;;;;;;;4958693;29;20184;-83
2023/11/27 13:13:25;;;;;;;1.90;1.20;;;;;;;;;;4960949;29;20176;-82
2023/11/27 13:16:30;;;;;;;2.40;1.30;;;;;;;;;;4960367;29;20180;-83
2023/11/27 13:19:34;;;;;;;2.60;1.40;;;;;;;;;;4959333;29;20219;-83
2023/11/27 13:22:38;;;;;;;4.53;1.33;;;;;;;;;;4960237;29;20179;-83
2023/11/27 13:25:43;;;;;;;1.57;1.20;;;;;;;;;;4960323;29;20187;-82
2023/11/27 13:28:47;;;;;;;2.50;1.90;;;;;;;;;;4960183;29;20218;-83
2023/11/27 13:31:51;;;;;;;2.97;1.50;;;;;;;;;;4949191;29;20211;-82
2023/11/27 13:34:55;;;;;;;4.47;3.00;;;;;;;;;;4960854;29;20196;-82
2023/11/27 13:38:02;;;;;;;2.67;1.73;;;;;;;;;;4950144;29;20218;-83
2023/11/27 13:41:10;;;;;;;2.77;1.77;;;;;;;;;;4960688;29;20191;-83
2023/11/27 13:44:17;;;;;;;3.23;1.50;;;;;;;;;;4948409;29;20183;-83
2023/11/27 13:47:21;;;;;;;2.30;1.57;;;;;;;;;;4960032;29;20183;-83
2023/11/27 13:50:36;;;;;;;6.80;3.20;;;;;;;;;;4960716;29;20191;-82
2023/11/27 13:53:41;;;;;;;1.93;1.70;;;;;;;;;;4960174;29;20637;-83
2023/11/27 13:56:45;;;;;;;1.63;1.33;;;;;;;;;;4960216;29;20188;-82
2023/11/27 13:59:50;;;;;;;2.93;1.37;;;;;;;;;;4959339;29;20227;-83
2023/11/27 14:02:55;;;;;;;1.83;1.23;;;;;;;;;;4958931;29;20183;-82
2023/11/27 14:06:04;;;;;;;2.20;1.37;;;;;;;;;;4959058;29;20191;-82
2023/11/27 14:09:45;;;;;;;1.30;1.17;;;;;;;;;;4959804;29;20211;-82
2023/11/27 14:12:43;;;;;;;2.83;1.70;;;;;;;;;;4958750;29;20212;-82
2023/11/27 14:15:48;;;;;;;3.97;2.40;;;;;;;;;;4960138;29;20180;-82
2023/11/27 14:32:00;;;;;;;1.67;1.17;;;;;;;;;;4958076;29;20580;-84
2023/11/27 14:35:08;;;;;;;4.47;1.40;;;;;;;;;;4956983;29;20183;-85
2023/11/27 14:38:12;;;;;;;1.77;1.20;;;;;;;;;;4946366;29;20223;-82
2023/11/27 14:41:17;;;;;;;1.73;1.20;;;;;;;;;;4957161;29;20633;-82
2023/11/27 14:44:23;;;;;;;1.43;1.23;;;;;;;;;;4957884;29;20649;-82
2023/11/27 14:47:29;;;;;;;2.07;1.80;;;;;;;;;;4957358;29;20191;-82
2023/11/27 14:50:34;;;;;;;2.80;1.60;;;;;;;;;;4957142;29;20188;-82
2023/11/27 14:53:46;;;;;;;2.73;1.33;;;;;;;;;;4957195;29;20696;-82
2023/11/27 14:56:50;;;;;;;3.37;1.50;;;;;;;;;;4957539;29;20188;-82
2023/11/27 14:59:56;;;;;;;2.13;1.10;;;;;;;;;;4956325;29;20184;-83
2023/11/27 15:03:00;;;;;;;2.30;1.23;;;;;;;;;;4957282;28;20183;-83
2023/11/27 15:06:07;;;;;;;1.40;1.00;;;;;;;;;;4959899;29;20191;-83
2023/11/27 15:09:21;;;;;;;1.77;1.10;;;;;;;;;;4959588;29;20227;-83
2023/11/27 15:12:32;;;;;;;4.67;3.67;;;;;;;;;;4948983;29;20207;-83
2023/11/27 15:15:36;;;;;;;2.40;1.70;;;;;;;;;;4960877;29;20188;-84
2023/11/27 15:18:40;;;;;;;2.23;1.43;;;;;;;;;;4960779;29;20214;-84
2023/11/27 15:21:46;;;;;;;2.50;1.57;;;;;;;;;;4949731;29;20184;-82
2023/11/27 15:24:50;;;;;;;1.13;0.90;;;;;;;;;;4948872;29;20187;-82
2023/11/27 15:27:56;;;;;;;4.80;2.00;;;;;;;;;;4962433;29;20596;-83
2023/11/27 15:31:01;;;;;;;3.37;2.87;;;;;;;;;;4962233;29;20180;-82
2023/11/27 15:34:08;;;;;;;2.80;2.00;;;;;;;;;;4963940;29;20184;-83
2023/11/27 15:37:14;;;;;;;4.03;1.03;;;;;;;;;;4962967;29;20184;-83
2023/11/27 15:40:26;;;;;;;2.17;1.10;;;;;;;;;;4939349;29;20188;-83
2023/11/27 15:43:30;;;;;;;1.30;0.97;;;;;;;;;;4951260;29;20172;-83
2023/11/27 15:46:35;;;;;;;2.60;1.00;;;;;;;;;;4961971;29;20553;-82
2023/11/27 15:49:40;;;;;;;1.57;1.10;;;;;;;;;;4949426;29;20222;-82
2023/11/27 15:52:49;;;;;;;1.27;0.93;;;;;;;;;;4960014;29;20216;-82
2023/11/27 15:55:54;;;;;;;1.27;1.03;;;;;;;;;;4960818;29;20187;-82
2023/11/27 15:58:58;;;;;;;3.10;1.77;;;;;;;;;;4961800;29;20223;-81
2023/11/27 16:02:02;;;;;;;5.77;4.57;;;;;;;;;;4960689;29;20179;-82
2023/11/27 16:05:09;;;;;;;2.93;2.47;;;;;;;;;;4961417;29;20187;-82
2023/11/27 16:08:13;;;;;;;4.33;1.93;;;;;;;;;;4960785;29;20223;-82
2023/11/27 16:11:22;;;;;;;2.97;2.03;;;;;;;;;;4961260;29;20519;-82
2023/11/27 16:14:26;;;;;;;2.70;2.13;;;;;;;;;;4960381;28;20183;-81
2023/11/27 16:17:32;;;;;;;3.17;2.00;;;;;;;;;;4960700;29;20180;-82
2023/11/27 16:20:40;;;;;;;2.03;1.70;;;;;;;;;;4960910;29;20549;-81
2023/11/27 16:23:45;;;;;;;3.07;1.97;;;;;;;;;;4960677;29;20180;-82
2023/11/27 16:26:51;;;;;;;4.27;3.33;;;;;;;;;;4961141;29;20210;-82
2023/11/27 16:29:55;;;;;;;11.40;8.20;;;;;;;;;;4949834;29;20187;-82
2023/11/27 16:32:59;;;;;;;9.13;6.87;;;;;;;;;;4959297;29;20211;-83
2023/11/27 16:36:04;;;;;;;4.67;2.43;;;;;;;;;;4937476;29;20192;-82
2023/11/27 16:39:13;;;;;;;3.03;1.70;;;;;;;;;;4959591;29;20223;-82
2023/11/27 16:42:16;;;;;;;2.57;1.83;;;;;;;;;;4959910;29;20188;-83
2023/11/27 16:45:23;;;;;;;2.37;1.60;;;;;;;;;;4959963;29;20191;-83
2023/11/27 16:48:28;;;;;;;2.63;1.73;;;;;;;;;;4949418;29;20226;-86
2023/11/27 16:51:32;;;;;;;2.70;1.67;;;;;;;;;;4958059;29;20200;-86
2023/11/27 16:54:36;;;;;;;2.60;1.90;;;;;;;;;;4936430;29;20172;-85
2023/11/27 16:57:40;;;;;;;2.63;2.20;;;;;;;;;;4960572;29;20191;-86
2023/11/27 17:00:46;;;;;;;2.27;1.97;;;;;;;;;;4959100;29;20188;-86
2023/11/27 17:03:53;;;;;;;2.33;1.90;;;;;;;;;;4948879;29;20629;-87
2023/11/27 17:06:57;;;;;;;3.47;2.37;;;;;;;;;;4958991;29;20547;-86
2023/11/27 17:10:04;;;;;;;3.60;2.27;;;;;;;;;;4957376;29;20556;-86
2023/11/27 17:13:14;;;;;;;2.83;2.20;;;;;;;;;;4958814;29;20595;-85
2023/11/27 17:16:17;;;;;;;3.57;2.37;;;;;;;;;;4959032;29;20536;-84
2023/11/27 17:19:21;;;;;;;4.90;2.57;;;;;;;;;;4947387;29;20615;-84
2023/11/27 17:22:26;;;;;;;3.90;2.47;;;;;;;;;;4947401;29;20878;-84
2023/11/27 17:25:30;;;;;;;4.60;3.00;;;;;;;;;;4959077;29;20540;-84
2023/11/27 17:28:34;;;;;;;4.93;3.63;;;;;;;;;;4958909;29;20623;-85
2023/11/27 17:31:39;;;;;;;3.87;3.10;;;;;;;;;;4958507;29;20908;-86
2023/11/27 17:34:43;;;;;;;4.40;2.67;;;;;;;;;;4957702;29;20544;-85
2023/11/27 17:37:49;;;;;;;4.57;3.37;;;;;;;;;;4945026;29;20869;-85
2023/11/27 17:40:53;;;;;;;3.43;2.77;;;;;;;;;;4934196;29;20547;-86
2023/11/27 17:43:57;;;;;;;3.60;2.93;;;;;;;;;;4955984;29;20535;-86
2023/11/27 17:47:07;;;;;;;5.13;3.13;;;;;;;;;;4955498;29;21095;-87
2023/11/27 19:00:21;;;;;;;3.00;2.60;;;;;;;;;;5003007;23;20689;-90
2023/11/27 19:05:43;;;;;;;3.53;2.70;;;;;;;;;;4953838;29;20607;-90
2023/11/27 19:10:42;;;;;;;5.97;3.03;;;;;;;;;;4824999;29;20625;-90
2023/11/27 19:21:05;;;;;;;4.23;2.97;;;;;;;;;;4734018;30;20626;-90
2023/11/27 20:40:26;;;;;;;4.87;4.00;;;;;;;;;;4823006;29;20636;-92
2023/11/27 20:43:41;;;;;;;5.50;4.17;;;;;;;;;;4833060;29;20554;-91
2023/11/27 20:46:47;;;;;;;6.67;4.50;;;;;;;;;;4844762;29;20633;-93
2023/11/27 20:50:19;;;;;;;5.27;4.60;;;;;;;;;;4867117;29;20630;-90
2023/11/27 20:53:31;;;;;;;5.13;4.37;;;;;;;;;;4976780;28;20599;-91
2023/11/27 20:57:05;;;;;;;6.53;4.27;;;;;;;;;;4954683;28;20551;-91
